sensor_id;sensor_type;location;lat;lon;timestamp;P1;durP1;ratioP1;P2;durP2;ratioP2
19339;SDS011;9804;52.350;6.684;2023-10-09T00:01:25;17.25;;;7.70;;
19339;SDS011;9804;52.350;6.684;2023-10-09T00:03:51;14.00;;;8.48;;
19339;SDS011;9804;52.350;6.684;2023-10-09T00:06:21;17.05;;;8.07;;
19339;SDS011;9804;52.350;6.684;2023-10-09T00:09:02;16.23;;;8.13;;
19339;SDS011;9804;52.350;6.684;2023-10-09T00:11:42;13.77;;;8.65;;
19339;SDS011;9804;52.350;6.684;2023-10-09T00:14:09;17.38;;;8.63;;
19339;SDS011;9804;52.350;6.684;2023-10-09T00:16:40;14.73;;;8.32;;
19339;SDS011;9804;52.350;6.684;2023-10-09T00:19:12;16.45;;;7.95;;
19339;SDS011;9804;52.350;6.684;2023-10-09T00:21:55;21.63;;;9.30;;
19339;SDS011;9804;52.350;6.684;2023-10-09T00:24:20;21.00;;;9.82;;
19339;SDS011;9804;52.350;6.684;2023-10-09T00:26:49;18.50;;;9.13;;
19339;SDS011;9804;52.350;6.684;2023-10-09T00:29:16;24.48;;;10.63;;
19339;SDS011;9804;52.350;6.684;2023-10-09T00:31:48;20.83;;;10.18;;
19339;SDS011;9804;52.350;6.684;2023-10-09T00:34:38;18.55;;;10.23;;
19339;SDS011;9804;52.350;6.684;2023-10-09T00:37:07;17.17;;;9.38;;
19339;SDS011;9804;52.350;6.684;2023-10-09T00:39:44;23.20;;;11.35;;
19339;SDS011;9804;52.350;6.684;2023-10-09T00:42:12;21.85;;;10.55;;
19339;SDS011;9804;52.350;6.684;2023-10-09T00:44:39;24.70;;;10.98;;
19339;SDS011;9804;52.350;6.684;2023-10-09T00:47:07;25.98;;;10.93;;
19339;SDS011;9804;52.350;6.684;2023-10-09T00:49:56;22.70;;;12.13;;
19339;SDS011;9804;52.350;6.684;2023-10-09T00:52:33;21.88;;;10.63;;
19339;SDS011;9804;52.350;6.684;2023-10-09T00:55:14;24.77;;;11.60;;
19339;SDS011;9804;52.350;6.684;2023-10-09T00:58:06;26.85;;;13.00;;
19339;SDS011;9804;52.350;6.684;2023-10-09T01:00:37;26.27;;;12.65;;
19339;SDS011;9804;52.350;6.684;2023-10-09T01:03:09;22.67;;;12.75;;
19339;SDS011;9804;52.350;6.684;2023-10-09T01:05:51;25.88;;;13.40;;
19339;SDS011;9804;52.350;6.684;2023-10-09T01:08:25;22.17;;;12.50;;
19339;SDS011;9804;52.350;6.684;2023-10-09T01:11:12;21.30;;;12.23;;
19339;SDS011;9804;52.350;6.684;2023-10-09T01:13:46;29.88;;;13.60;;
19339;SDS011;9804;52.350;6.684;2023-10-09T01:16:16;28.35;;;15.18;;
19339;SDS011;9804;52.350;6.684;2023-10-09T01:18:42;33.03;;;15.82;;
19339;SDS011;9804;52.350;6.684;2023-10-09T01:21:12;30.58;;;15.10;;
19339;SDS011;9804;52.350;6.684;2023-10-09T01:23:42;29.90;;;16.23;;
19339;SDS011;9804;52.350;6.684;2023-10-09T01:26:27;35.45;;;16.80;;
19339;SDS011;9804;52.350;6.684;2023-10-09T01:28:57;30.45;;;16.73;;
19339;SDS011;9804;52.350;6.684;2023-10-09T01:31:25;31.50;;;16.83;;
19339;SDS011;9804;52.350;6.684;2023-10-09T01:34:08;31.10;;;15.85;;
19339;SDS011;9804;52.350;6.684;2023-10-09T01:36:38;32.45;;;15.48;;
19339;SDS011;9804;52.350;6.684;2023-10-09T01:39:04;34.45;;;18.15;;
19339;SDS011;9804;52.350;6.684;2023-10-09T01:41:49;33.30;;;18.42;;
19339;SDS011;9804;52.350;6.684;2023-10-09T01:44:22;36.13;;;18.80;;
19339;SDS011;9804;52.350;6.684;2023-10-09T01:46:50;39.72;;;19.92;;
19339;SDS011;9804;52.350;6.684;2023-10-09T01:49:17;40.03;;;21.02;;
19339;SDS011;9804;52.350;6.684;2023-10-09T01:51:46;39.92;;;20.70;;
19339;SDS011;9804;52.350;6.684;2023-10-09T01:54:13;40.55;;;22.02;;
19339;SDS011;9804;52.350;6.684;2023-10-09T01:56:58;45.47;;;22.60;;
19339;SDS011;9804;52.350;6.684;2023-10-09T01:59:30;43.50;;;22.48;;
19339;SDS011;9804;52.350;6.684;2023-10-09T02:01:56;41.92;;;21.88;;
19339;SDS011;9804;52.350;6.684;2023-10-09T02:04:23;47.97;;;23.52;;
19339;SDS011;9804;52.350;6.684;2023-10-09T02:06:49;45.40;;;23.02;;
19339;SDS011;9804;52.350;6.684;2023-10-09T02:09:17;43.95;;;22.77;;
19339;SDS011;9804;52.350;6.684;2023-10-09T02:11:56;43.92;;;21.88;;
19339;SDS011;9804;52.350;6.684;2023-10-09T02:14:22;46.60;;;24.65;;
19339;SDS011;9804;52.350;6.684;2023-10-09T02:16:49;54.80;;;24.90;;
19339;SDS011;9804;52.350;6.684;2023-10-09T02:19:34;45.83;;;23.95;;
19339;SDS011;9804;52.350;6.684;2023-10-09T02:22:03;49.92;;;26.08;;
19339;SDS011;9804;52.350;6.684;2023-10-09T02:24:40;55.38;;;27.42;;
19339;SDS011;9804;52.350;6.684;2023-10-09T02:27:13;51.28;;;26.85;;
19339;SDS011;9804;52.350;6.684;2023-10-09T02:29:45;43.65;;;23.42;;
19339;SDS011;9804;52.350;6.684;2023-10-09T02:32:12;50.17;;;24.63;;
19339;SDS011;9804;52.350;6.684;2023-10-09T02:34:39;44.90;;;24.15;;
19339;SDS011;9804;52.350;6.684;2023-10-09T02:37:05;50.60;;;25.35;;
19339;SDS011;9804;52.350;6.684;2023-10-09T02:39:31;53.50;;;27.10;;
19339;SDS011;9804;52.350;6.684;2023-10-09T02:42:08;48.38;;;25.30;;
19339;SDS011;9804;52.350;6.684;2023-10-09T02:44:34;48.45;;;26.40;;
19339;SDS011;9804;52.350;6.684;2023-10-09T02:47:05;52.30;;;26.67;;
19339;SDS011;9804;52.350;6.684;2023-10-09T02:49:37;47.17;;;25.58;;
19339;SDS011;9804;52.350;6.684;2023-10-09T02:52:04;46.28;;;24.63;;
19339;SDS011;9804;52.350;6.684;2023-10-09T02:54:32;53.58;;;26.70;;
19339;SDS011;9804;52.350;6.684;2023-10-09T02:57:01;54.13;;;26.67;;
19339;SDS011;9804;52.350;6.684;2023-10-09T02:59:41;49.08;;;25.92;;
19339;SDS011;9804;52.350;6.684;2023-10-09T03:02:07;49.78;;;27.40;;
19339;SDS011;9804;52.350;6.684;2023-10-09T03:04:32;50.15;;;26.45;;
19339;SDS011;9804;52.350;6.684;2023-10-09T03:06:58;51.70;;;26.38;;
19339;SDS011;9804;52.350;6.684;2023-10-09T03:09:24;52.47;;;26.08;;
19339;SDS011;9804;52.350;6.684;2023-10-09T03:11:54;45.25;;;25.52;;
19339;SDS011;9804;52.350;6.684;2023-10-09T03:14:27;45.72;;;24.85;;
19339;SDS011;9804;52.350;6.684;2023-10-09T03:17:00;49.97;;;25.70;;
19339;SDS011;9804;52.350;6.684;2023-10-09T03:19:30;50.67;;;25.52;;
19339;SDS011;9804;52.350;6.684;2023-10-09T03:22:02;54.67;;;26.70;;
19339;SDS011;9804;52.350;6.684;2023-10-09T03:24:34;49.97;;;26.45;;
19339;SDS011;9804;52.350;6.684;2023-10-09T03:27:00;45.28;;;24.10;;
19339;SDS011;9804;52.350;6.684;2023-10-09T03:29:25;49.28;;;26.08;;
19339;SDS011;9804;52.350;6.684;2023-10-09T03:31:52;51.17;;;26.13;;
19339;SDS011;9804;52.350;6.684;2023-10-09T03:34:18;50.80;;;26.80;;
19339;SDS011;9804;52.350;6.684;2023-10-09T03:36:45;47.22;;;24.48;;
19339;SDS011;9804;52.350;6.684;2023-10-09T03:39:10;49.42;;;24.23;;
19339;SDS011;9804;52.350;6.684;2023-10-09T03:41:55;45.50;;;22.67;;
19339;SDS011;9804;52.350;6.684;2023-10-09T03:44:23;49.05;;;24.88;;
19339;SDS011;9804;52.350;6.684;2023-10-09T03:46:49;55.17;;;27.52;;
19339;SDS011;9804;52.350;6.684;2023-10-09T03:49:16;47.58;;;26.42;;
19339;SDS011;9804;52.350;6.684;2023-10-09T03:51:48;49.45;;;27.17;;
19339;SDS011;9804;52.350;6.684;2023-10-09T03:54:14;50.55;;;27.17;;
19339;SDS011;9804;52.350;6.684;2023-10-09T03:56:40;51.22;;;27.52;;
19339;SDS011;9804;52.350;6.684;2023-10-09T03:59:06;48.83;;;24.20;;
19339;SDS011;9804;52.350;6.684;2023-10-09T04:01:35;45.28;;;25.10;;
19339;SDS011;9804;52.350;6.684;2023-10-09T04:04:04;48.85;;;26.13;;
19339;SDS011;9804;52.350;6.684;2023-10-09T04:06:32;47.17;;;25.83;;
19339;SDS011;9804;52.350;6.684;2023-10-09T04:08:58;48.08;;;26.75;;
19339;SDS011;9804;52.350;6.684;2023-10-09T04:11:27;47.55;;;25.30;;
19339;SDS011;9804;52.350;6.684;2023-10-09T04:13:53;52.90;;;25.98;;
19339;SDS011;9804;52.350;6.684;2023-10-09T04:16:20;49.55;;;25.95;;
19339;SDS011;9804;52.350;6.684;2023-10-09T04:18:58;45.05;;;25.60;;
19339;SDS011;9804;52.350;6.684;2023-10-09T04:21:24;47.42;;;25.50;;
19339;SDS011;9804;52.350;6.684;2023-10-09T04:23:59;45.80;;;25.58;;
19339;SDS011;9804;52.350;6.684;2023-10-09T04:26:47;47.97;;;24.77;;
19339;SDS011;9804;52.350;6.684;2023-10-09T04:29:14;46.42;;;25.75;;
19339;SDS011;9804;52.350;6.684;2023-10-09T04:31:52;46.97;;;23.83;;
19339;SDS011;9804;52.350;6.684;2023-10-09T04:34:24;49.88;;;24.67;;
19339;SDS011;9804;52.350;6.684;2023-10-09T04:36:57;44.55;;;25.33;;
19339;SDS011;9804;52.350;6.684;2023-10-09T04:39:40;49.17;;;25.27;;
19339;SDS011;9804;52.350;6.684;2023-10-09T04:42:13;44.80;;;25.42;;
19339;SDS011;9804;52.350;6.684;2023-10-09T04:45:01;48.08;;;25.92;;
19339;SDS011;9804;52.350;6.684;2023-10-09T04:47:28;50.65;;;27.60;;
19339;SDS011;9804;52.350;6.684;2023-10-09T04:50:01;49.17;;;26.15;;
19339;SDS011;9804;52.350;6.684;2023-10-09T04:52:33;47.92;;;26.45;;
19339;SDS011;9804;52.350;6.684;2023-10-09T04:54:59;47.13;;;26.20;;
19339;SDS011;9804;52.350;6.684;2023-10-09T04:57:41;43.10;;;24.45;;
19339;SDS011;9804;52.350;6.684;2023-10-09T05:00:14;49.65;;;26.10;;
19339;SDS011;9804;52.350;6.684;2023-10-09T05:02:49;49.95;;;26.20;;
19339;SDS011;9804;52.350;6.684;2023-10-09T05:05:49;43.85;;;25.98;;
19339;SDS011;9804;52.350;6.684;2023-10-09T05:08:23;51.28;;;27.08;;
19339;SDS011;9804;52.350;6.684;2023-10-09T05:10:52;46.15;;;26.50;;
19339;SDS011;9804;52.350;6.684;2023-10-09T05:13:35;47.33;;;26.25;;
19339;SDS011;9804;52.350;6.684;2023-10-09T05:16:04;47.30;;;26.45;;
19339;SDS011;9804;52.350;6.684;2023-10-09T05:18:30;42.83;;;24.67;;
19339;SDS011;9804;52.350;6.684;2023-10-09T05:21:01;53.13;;;27.05;;
19339;SDS011;9804;52.350;6.684;2023-10-09T05:23:47;47.88;;;26.20;;
19339;SDS011;9804;52.350;6.684;2023-10-09T05:26:36;52.55;;;26.33;;
19339;SDS011;9804;52.350;6.684;2023-10-09T05:29:14;46.88;;;26.90;;
19339;SDS011;9804;52.350;6.684;2023-10-09T05:31:59;46.90;;;26.10;;
19339;SDS011;9804;52.350;6.684;2023-10-09T05:34:30;49.20;;;26.65;;
19339;SDS011;9804;52.350;6.684;2023-10-09T05:37:03;49.60;;;25.33;;
19339;SDS011;9804;52.350;6.684;2023-10-09T05:39:48;48.42;;;27.48;;
19339;SDS011;9804;52.350;6.684;2023-10-09T05:42:26;50.92;;;26.23;;
19339;SDS011;9804;52.350;6.684;2023-10-09T05:45:08;50.45;;;27.98;;
19339;SDS011;9804;52.350;6.684;2023-10-09T05:47:46;46.78;;;25.92;;
19339;SDS011;9804;52.350;6.684;2023-10-09T05:50:18;50.85;;;27.35;;
19339;SDS011;9804;52.350;6.684;2023-10-09T05:52:47;47.38;;;26.83;;
19339;SDS011;9804;52.350;6.684;2023-10-09T05:55:16;49.05;;;27.05;;
19339;SDS011;9804;52.350;6.684;2023-10-09T05:57:50;50.75;;;27.25;;
19339;SDS011;9804;52.350;6.684;2023-10-09T06:00:34;57.22;;;27.88;;
19339;SDS011;9804;52.350;6.684;2023-10-09T06:03:18;46.28;;;25.88;;
19339;SDS011;9804;52.350;6.684;2023-10-09T06:05:44;46.50;;;26.65;;
19339;SDS011;9804;52.350;6.684;2023-10-09T06:08:19;43.17;;;26.00;;
19339;SDS011;9804;52.350;6.684;2023-10-09T06:11:03;49.38;;;26.05;;
19339;SDS011;9804;52.350;6.684;2023-10-09T06:13:52;50.65;;;28.10;;
19339;SDS011;9804;52.350;6.684;2023-10-09T06:16:33;45.83;;;26.58;;
19339;SDS011;9804;52.350;6.684;2023-10-09T06:19:09;49.80;;;25.75;;
19339;SDS011;9804;52.350;6.684;2023-10-09T06:21:44;51.75;;;27.88;;
19339;SDS011;9804;52.350;6.684;2023-10-09T06:24:16;48.17;;;26.48;;
19339;SDS011;9804;52.350;6.684;2023-10-09T06:26:46;48.42;;;27.58;;
19339;SDS011;9804;52.350;6.684;2023-10-09T06:29:24;47.85;;;26.90;;
19339;SDS011;9804;52.350;6.684;2023-10-09T06:32:12;46.53;;;26.52;;
19339;SDS011;9804;52.350;6.684;2023-10-09T06:34:59;47.13;;;24.90;;
19339;SDS011;9804;52.350;6.684;2023-10-09T06:37:41;41.80;;;24.13;;
19339;SDS011;9804;52.350;6.684;2023-10-09T06:40:26;49.72;;;26.23;;
19339;SDS011;9804;52.350;6.684;2023-10-09T06:43:17;48.75;;;25.23;;
19339;SDS011;9804;52.350;6.684;2023-10-09T06:45:52;40.35;;;24.17;;
19339;SDS011;9804;52.350;6.684;2023-10-09T06:48:37;40.53;;;25.08;;
19339;SDS011;9804;52.350;6.684;2023-10-09T06:51:03;48.17;;;24.27;;
19339;SDS011;9804;52.350;6.684;2023-10-09T06:53:38;45.85;;;25.33;;
19339;SDS011;9804;52.350;6.684;2023-10-09T06:56:28;42.72;;;23.73;;
19339;SDS011;9804;52.350;6.684;2023-10-09T06:58:54;47.17;;;24.17;;
19339;SDS011;9804;52.350;6.684;2023-10-09T07:01:20;43.00;;;23.52;;
19339;SDS011;9804;52.350;6.684;2023-10-09T07:04:04;42.03;;;24.67;;
19339;SDS011;9804;52.350;6.684;2023-10-09T07:06:49;42.22;;;23.40;;
19339;SDS011;9804;52.350;6.684;2023-10-09T07:09:16;42.00;;;23.80;;
19339;SDS011;9804;52.350;6.684;2023-10-09T07:11:45;41.75;;;22.88;;
19339;SDS011;9804;52.350;6.684;2023-10-09T07:14:18;37.78;;;22.10;;
19339;SDS011;9804;52.350;6.684;2023-10-09T07:16:55;43.30;;;23.08;;
19339;SDS011;9804;52.350;6.684;2023-10-09T07:19:27;45.45;;;22.58;;
19339;SDS011;9804;52.350;6.684;2023-10-09T07:22:00;36.38;;;21.80;;
19339;SDS011;9804;52.350;6.684;2023-10-09T07:24:28;38.28;;;21.60;;
19339;SDS011;9804;52.350;6.684;2023-10-09T07:27:08;35.90;;;20.25;;
19339;SDS011;9804;52.350;6.684;2023-10-09T07:29:35;36.22;;;21.10;;
19339;SDS011;9804;52.350;6.684;2023-10-09T07:32:13;40.10;;;22.17;;
19339;SDS011;9804;52.350;6.684;2023-10-09T07:34:45;37.65;;;21.10;;
19339;SDS011;9804;52.350;6.684;2023-10-09T07:37:22;39.20;;;21.30;;
19339;SDS011;9804;52.350;6.684;2023-10-09T07:39:49;36.40;;;20.98;;
19339;SDS011;9804;52.350;6.684;2023-10-09T07:42:22;34.78;;;19.98;;
19339;SDS011;9804;52.350;6.684;2023-10-09T07:45:07;35.95;;;20.13;;
19339;SDS011;9804;52.350;6.684;2023-10-09T07:47:48;35.90;;;19.98;;
19339;SDS011;9804;52.350;6.684;2023-10-09T07:50:36;35.80;;;19.70;;
19339;SDS011;9804;52.350;6.684;2023-10-09T07:53:15;41.25;;;20.50;;
19339;SDS011;9804;52.350;6.684;2023-10-09T07:55:45;41.15;;;20.60;;
19339;SDS011;9804;52.350;6.684;2023-10-09T07:58:20;35.83;;;19.83;;
19339;SDS011;9804;52.350;6.684;2023-10-09T08:00:50;32.85;;;19.35;;
19339;SDS011;9804;52.350;6.684;2023-10-09T08:03:33;29.00;;;18.50;;
19339;SDS011;9804;52.350;6.684;2023-10-09T08:06:01;34.05;;;18.40;;
19339;SDS011;9804;52.350;6.684;2023-10-09T08:08:52;34.30;;;18.45;;
19339;SDS011;9804;52.350;6.684;2023-10-09T08:11:36;31.95;;;19.05;;
19339;SDS011;9804;52.350;6.684;2023-10-09T08:14:11;33.35;;;19.08;;
19339;SDS011;9804;52.350;6.684;2023-10-09T08:16:45;34.08;;;18.02;;
19339;SDS011;9804;52.350;6.684;2023-10-09T08:19:11;32.53;;;18.52;;
19339;SDS011;9804;52.350;6.684;2023-10-09T08:21:57;33.05;;;18.63;;
19339;SDS011;9804;52.350;6.684;2023-10-09T08:24:49;28.05;;;18.13;;
19339;SDS011;9804;52.350;6.684;2023-10-09T08:29:55;29.20;;;17.23;;
19339;SDS011;9804;52.350;6.684;2023-10-09T08:32:39;30.38;;;18.25;;
19339;SDS011;9804;52.350;6.684;2023-10-09T08:35:06;28.27;;;17.65;;
19339;SDS011;9804;52.350;6.684;2023-10-09T08:37:51;30.98;;;17.95;;
19339;SDS011;9804;52.350;6.684;2023-10-09T08:40:18;34.58;;;18.60;;
19339;SDS011;9804;52.350;6.684;2023-10-09T08:42:47;32.47;;;17.90;;
19339;SDS011;9804;52.350;6.684;2023-10-09T08:45:21;32.38;;;16.40;;
19339;SDS011;9804;52.350;6.684;2023-10-09T08:47:49;32.08;;;16.55;;
19339;SDS011;9804;52.350;6.684;2023-10-09T08:50:19;24.58;;;16.20;;
19339;SDS011;9804;52.350;6.684;2023-10-09T08:52:45;27.27;;;16.10;;
19339;SDS011;9804;52.350;6.684;2023-10-09T08:55:11;25.30;;;16.02;;
19339;SDS011;9804;52.350;6.684;2023-10-09T08:57:38;26.70;;;15.88;;
19339;SDS011;9804;52.350;6.684;2023-10-09T09:00:05;28.45;;;16.80;;
19339;SDS011;9804;52.350;6.684;2023-10-09T09:02:36;25.40;;;15.23;;
19339;SDS011;9804;52.350;6.684;2023-10-09T09:05:16;22.27;;;14.88;;
19339;SDS011;9804;52.350;6.684;2023-10-09T09:07:43;25.55;;;15.52;;
19339;SDS011;9804;52.350;6.684;2023-10-09T09:10:09;27.55;;;15.02;;
19339;SDS011;9804;52.350;6.684;2023-10-09T09:12:46;26.23;;;14.80;;
19339;SDS011;9804;52.350;6.684;2023-10-09T09:15:18;27.73;;;14.88;;
19339;SDS011;9804;52.350;6.684;2023-10-09T09:17:45;25.70;;;14.82;;
19339;SDS011;9804;52.350;6.684;2023-10-09T09:20:24;25.38;;;15.15;;
19339;SDS011;9804;52.350;6.684;2023-10-09T09:23:00;21.95;;;14.40;;
19339;SDS011;9804;52.350;6.684;2023-10-09T09:25:43;25.35;;;14.40;;
19339;SDS011;9804;52.350;6.684;2023-10-09T09:28:11;26.75;;;15.05;;
19339;SDS011;9804;52.350;6.684;2023-10-09T09:30:46;23.88;;;15.45;;
19339;SDS011;9804;52.350;6.684;2023-10-09T09:33:23;22.67;;;14.10;;
19339;SDS011;9804;52.350;6.684;2023-10-09T09:36:06;25.67;;;13.85;;
19339;SDS011;9804;52.350;6.684;2023-10-09T09:38:33;24.25;;;14.40;;
19339;SDS011;9804;52.350;6.684;2023-10-09T09:41:15;22.20;;;12.85;;
19339;SDS011;9804;52.350;6.684;2023-10-09T09:43:52;22.88;;;12.80;;
19339;SDS011;9804;52.350;6.684;2023-10-09T09:46:21;21.48;;;12.15;;
19339;SDS011;9804;52.350;6.684;2023-10-09T09:48:57;24.63;;;12.70;;
19339;SDS011;9804;52.350;6.684;2023-10-09T09:51:32;20.20;;;12.02;;
19339;SDS011;9804;52.350;6.684;2023-10-09T09:53:57;16.98;;;11.45;;
19339;SDS011;9804;52.350;6.684;2023-10-09T09:56:26;23.90;;;12.32;;
19339;SDS011;9804;52.350;6.684;2023-10-09T09:58:53;22.80;;;11.63;;
19339;SDS011;9804;52.350;6.684;2023-10-09T10:01:28;21.83;;;11.68;;
19339;SDS011;9804;52.350;6.684;2023-10-09T10:04:01;24.33;;;11.55;;
19339;SDS011;9804;52.350;6.684;2023-10-09T10:06:31;19.42;;;10.95;;
19339;SDS011;9804;52.350;6.684;2023-10-09T10:08:59;26.45;;;11.75;;
19339;SDS011;9804;52.350;6.684;2023-10-09T10:11:43;22.95;;;11.63;;
19339;SDS011;9804;52.350;6.684;2023-10-09T10:14:10;19.45;;;10.98;;
19339;SDS011;9804;52.350;6.684;2023-10-09T10:17:03;20.17;;;10.35;;
19339;SDS011;9804;52.350;6.684;2023-10-09T10:22:25;18.63;;;9.68;;
19339;SDS011;9804;52.350;6.684;2023-10-09T10:24:55;21.65;;;10.38;;
19339;SDS011;9804;52.350;6.684;2023-10-09T10:27:25;18.90;;;9.13;;
19339;SDS011;9804;52.350;6.684;2023-10-09T10:35:17;19.50;;;10.70;;
19339;SDS011;9804;52.350;6.684;2023-10-09T10:38:26;20.48;;;10.13;;
19339;SDS011;9804;52.350;6.684;2023-10-09T10:41:13;16.73;;;9.23;;
19339;SDS011;9804;52.350;6.684;2023-10-09T10:43:46;20.10;;;9.75;;
19339;SDS011;9804;52.350;6.684;2023-10-09T10:46:17;19.77;;;9.52;;
19339;SDS011;9804;52.350;6.684;2023-10-09T10:49:03;19.25;;;8.15;;
19339;SDS011;9804;52.350;6.684;2023-10-09T10:51:41;19.67;;;8.52;;
19339;SDS011;9804;52.350;6.684;2023-10-09T10:54:19;17.33;;;8.13;;
19339;SDS011;9804;52.350;6.684;2023-10-09T10:57:17;18.55;;;8.07;;
19339;SDS011;9804;52.350;6.684;2023-10-09T11:00:16;18.60;;;8.10;;
19339;SDS011;9804;52.350;6.684;2023-10-09T11:03:00;19.95;;;8.68;;
19339;SDS011;9804;52.350;6.684;2023-10-09T11:05:44;19.02;;;8.57;;
19339;SDS011;9804;52.350;6.684;2023-10-09T11:08:17;19.60;;;8.32;;
19339;SDS011;9804;52.350;6.684;2023-10-09T11:10:48;17.70;;;7.53;;
19339;SDS011;9804;52.350;6.684;2023-10-09T11:13:24;15.48;;;7.28;;
19339;SDS011;9804;52.350;6.684;2023-10-09T11:16:00;18.38;;;7.35;;
19339;SDS011;9804;52.350;6.684;2023-10-09T11:18:40;17.73;;;7.25;;
19339;SDS011;9804;52.350;6.684;2023-10-09T11:21:12;15.23;;;7.65;;
19339;SDS011;9804;52.350;6.684;2023-10-09T11:23:39;20.85;;;7.32;;
19339;SDS011;9804;52.350;6.684;2023-10-09T11:26:18;20.75;;;8.10;;
19339;SDS011;9804;52.350;6.684;2023-10-09T11:29:13;16.25;;;7.03;;
19339;SDS011;9804;52.350;6.684;2023-10-09T11:32:05;16.92;;;6.82;;
19339;SDS011;9804;52.350;6.684;2023-10-09T11:34:34;18.58;;;7.28;;
19339;SDS011;9804;52.350;6.684;2023-10-09T11:37:02;16.25;;;6.38;;
19339;SDS011;9804;52.350;6.684;2023-10-09T11:39:37;15.45;;;6.55;;
19339;SDS011;9804;52.350;6.684;2023-10-09T11:42:16;20.88;;;7.35;;
19339;SDS011;9804;52.350;6.684;2023-10-09T11:45:03;19.52;;;7.40;;
19339;SDS011;9804;52.350;6.684;2023-10-09T11:47:47;16.75;;;6.80;;
19339;SDS011;9804;52.350;6.684;2023-10-09T11:50:21;15.15;;;6.18;;
19339;SDS011;9804;52.350;6.684;2023-10-09T11:53:08;14.75;;;6.30;;
19339;SDS011;9804;52.350;6.684;2023-10-09T11:55:37;20.33;;;5.80;;
19339;SDS011;9804;52.350;6.684;2023-10-09T11:58:03;18.50;;;6.72;;
19339;SDS011;9804;52.350;6.684;2023-10-09T12:00:30;14.75;;;6.07;;
19339;SDS011;9804;52.350;6.684;2023-10-09T12:03:06;12.15;;;5.82;;
19339;SDS011;9804;52.350;6.684;2023-10-09T12:05:32;13.70;;;5.95;;
19339;SDS011;9804;52.350;6.684;2023-10-09T12:07:58;14.13;;;5.82;;
19339;SDS011;9804;52.350;6.684;2023-10-09T12:10:26;15.65;;;6.60;;
19339;SDS011;9804;52.350;6.684;2023-10-09T12:12:54;13.25;;;5.90;;
19339;SDS011;9804;52.350;6.684;2023-10-09T12:15:23;16.90;;;6.22;;
19339;SDS011;9804;52.350;6.684;2023-10-09T12:17:49;17.58;;;6.50;;
19339;SDS011;9804;52.350;6.684;2023-10-09T12:20:18;12.68;;;6.03;;
19339;SDS011;9804;52.350;6.684;2023-10-09T12:22:56;17.27;;;6.47;;
19339;SDS011;9804;52.350;6.684;2023-10-09T12:25:27;18.98;;;6.88;;
19339;SDS011;9804;52.350;6.684;2023-10-09T12:27:56;19.52;;;7.35;;
19339;SDS011;9804;52.350;6.684;2023-10-09T12:30:22;18.52;;;7.57;;
19339;SDS011;9804;52.350;6.684;2023-10-09T12:32:52;17.77;;;7.00;;
19339;SDS011;9804;52.350;6.684;2023-10-09T12:35:19;19.17;;;6.47;;
19339;SDS011;9804;52.350;6.684;2023-10-09T12:37:44;22.65;;;7.07;;
19339;SDS011;9804;52.350;6.684;2023-10-09T12:40:09;16.48;;;7.22;;
19339;SDS011;9804;52.350;6.684;2023-10-09T12:42:36;15.95;;;7.78;;
19339;SDS011;9804;52.350;6.684;2023-10-09T12:45:02;19.20;;;7.63;;
19339;SDS011;9804;52.350;6.684;2023-10-09T12:47:33;13.27;;;6.78;;
19339;SDS011;9804;52.350;6.684;2023-10-09T12:49:59;20.30;;;7.90;;
19339;SDS011;9804;52.350;6.684;2023-10-09T12:52:24;19.25;;;7.68;;
19339;SDS011;9804;52.350;6.684;2023-10-09T12:54:54;16.25;;;6.50;;
19339;SDS011;9804;52.350;6.684;2023-10-09T12:57:20;17.83;;;7.30;;
19339;SDS011;9804;52.350;6.684;2023-10-09T12:59:46;13.63;;;6.90;;
19339;SDS011;9804;52.350;6.684;2023-10-09T13:02:14;12.30;;;6.85;;
19339;SDS011;9804;52.350;6.684;2023-10-09T13:04:53;17.90;;;7.57;;
19339;SDS011;9804;52.350;6.684;2023-10-09T13:07:19;13.73;;;6.45;;
19339;SDS011;9804;52.350;6.684;2023-10-09T13:09:47;15.10;;;6.93;;
19339;SDS011;9804;52.350;6.684;2023-10-09T13:12:36;11.85;;;6.75;;
19339;SDS011;9804;52.350;6.684;2023-10-09T13:15:07;17.15;;;6.82;;
19339;SDS011;9804;52.350;6.684;2023-10-09T13:17:35;15.05;;;6.43;;
19339;SDS011;9804;52.350;6.684;2023-10-09T13:20:04;12.88;;;5.55;;
19339;SDS011;9804;52.350;6.684;2023-10-09T13:22:39;17.50;;;5.80;;
19339;SDS011;9804;52.350;6.684;2023-10-09T13:25:10;13.82;;;5.50;;
19339;SDS011;9804;52.350;6.684;2023-10-09T13:27:42;14.70;;;5.43;;
19339;SDS011;9804;52.350;6.684;2023-10-09T13:30:15;14.95;;;5.15;;
19339;SDS011;9804;52.350;6.684;2023-10-09T13:32:49;11.18;;;5.10;;
19339;SDS011;9804;52.350;6.684;2023-10-09T13:35:16;11.32;;;4.68;;
19339;SDS011;9804;52.350;6.684;2023-10-09T13:37:45;10.98;;;5.05;;
19339;SDS011;9804;52.350;6.684;2023-10-09T13:40:19;14.32;;;5.15;;
19339;SDS011;9804;52.350;6.684;2023-10-09T13:42:52;15.43;;;5.60;;
19339;SDS011;9804;52.350;6.684;2023-10-09T13:45:23;14.27;;;5.60;;
19339;SDS011;9804;52.350;6.684;2023-10-09T13:47:52;14.13;;;5.28;;
19339;SDS011;9804;52.350;6.684;2023-10-09T13:50:24;11.07;;;5.35;;
19339;SDS011;9804;52.350;6.684;2023-10-09T13:52:57;11.45;;;5.30;;
19339;SDS011;9804;52.350;6.684;2023-10-09T13:55:23;12.27;;;5.70;;
19339;SDS011;9804;52.350;6.684;2023-10-09T13:57:56;12.88;;;5.07;;
19339;SDS011;9804;52.350;6.684;2023-10-09T14:00:22;12.40;;;4.90;;
19339;SDS011;9804;52.350;6.684;2023-10-09T14:03:07;13.13;;;5.38;;
19339;SDS011;9804;52.350;6.684;2023-10-09T14:05:40;13.73;;;5.75;;
19339;SDS011;9804;52.350;6.684;2023-10-09T14:08:20;13.75;;;5.03;;
19339;SDS011;9804;52.350;6.684;2023-10-09T14:10:49;15.65;;;5.55;;
19339;SDS011;9804;52.350;6.684;2023-10-09T14:13:15;16.60;;;5.15;;
19339;SDS011;9804;52.350;6.684;2023-10-09T14:15:41;14.30;;;5.90;;
19339;SDS011;9804;52.350;6.684;2023-10-09T14:18:08;11.25;;;5.28;;
19339;SDS011;9804;52.350;6.684;2023-10-09T14:20:36;13.95;;;5.95;;
19339;SDS011;9804;52.350;6.684;2023-10-09T14:23:02;14.88;;;5.60;;
19339;SDS011;9804;52.350;6.684;2023-10-09T14:25:32;17.45;;;5.80;;
19339;SDS011;9804;52.350;6.684;2023-10-09T14:28:08;15.68;;;5.50;;
19339;SDS011;9804;52.350;6.684;2023-10-09T14:30:34;13.27;;;5.18;;
19339;SDS011;9804;52.350;6.684;2023-10-09T14:33:07;15.40;;;5.72;;
19339;SDS011;9804;52.350;6.684;2023-10-09T14:35:37;15.02;;;5.70;;
19339;SDS011;9804;52.350;6.684;2023-10-09T14:38:07;13.00;;;5.35;;
19339;SDS011;9804;52.350;6.684;2023-10-09T14:40:45;14.63;;;5.78;;
19339;SDS011;9804;52.350;6.684;2023-10-09T14:43:10;16.95;;;6.07;;
19339;SDS011;9804;52.350;6.684;2023-10-09T14:45:46;12.00;;;5.85;;
19339;SDS011;9804;52.350;6.684;2023-10-09T14:48:13;11.20;;;4.80;;
19339;SDS011;9804;52.350;6.684;2023-10-09T14:50:47;13.52;;;5.22;;
19339;SDS011;9804;52.350;6.684;2023-10-09T14:53:13;14.75;;;5.50;;
19339;SDS011;9804;52.350;6.684;2023-10-09T14:55:40;18.00;;;5.28;;
19339;SDS011;9804;52.350;6.684;2023-10-09T14:58:09;12.27;;;5.63;;
19339;SDS011;9804;52.350;6.684;2023-10-09T15:00:36;18.25;;;6.18;;
19339;SDS011;9804;52.350;6.684;2023-10-09T15:03:01;11.48;;;5.38;;
19339;SDS011;9804;52.350;6.684;2023-10-09T15:05:29;12.52;;;5.70;;
19339;SDS011;9804;52.350;6.684;2023-10-09T15:07:56;14.10;;;5.40;;
19339;SDS011;9804;52.350;6.684;2023-10-09T15:10:22;15.82;;;5.88;;
19339;SDS011;9804;52.350;6.684;2023-10-09T15:12:49;19.92;;;5.82;;
19339;SDS011;9804;52.350;6.684;2023-10-09T15:15:15;10.02;;;4.72;;
19339;SDS011;9804;52.350;6.684;2023-10-09T15:17:41;16.67;;;5.60;;
19339;SDS011;9804;52.350;6.684;2023-10-09T15:20:11;16.15;;;5.60;;
19339;SDS011;9804;52.350;6.684;2023-10-09T15:22:42;11.80;;;4.97;;
19339;SDS011;9804;52.350;6.684;2023-10-09T15:25:08;12.82;;;5.32;;